sensor_id;sensor_type;location;lat;lon;timestamp;temperature;humidity
13482;DHT22;6813;60.352;15.746;2023-04-12T00:00:23;7.10;99.90
13482;DHT22;6813;60.352;15.746;2023-04-12T00:02:49;7.10;99.90
13482;DHT22;6813;60.352;15.746;2023-04-12T00:05:21;7.00;99.90
13482;DHT22;6813;60.352;15.746;2023-04-12T00:07:50;7.00;99.90
13482;DHT22;6813;60.352;15.746;2023-04-12T00:10:18;7.00;99.90
13482;DHT22;6813;60.352;15.746;2023-04-12T00:12:44;6.90;99.90
13482;DHT22;6813;60.352;15.746;2023-04-12T00:15:11;7.00;99.90
13482;DHT22;6813;60.352;15.746;2023-04-12T00:17:37;6.90;99.90
13482;DHT22;6813;60.352;15.746;2023-04-12T00:20:03;6.90;99.90
13482;DHT22;6813;60.352;15.746;2023-04-12T00:22:38;6.90;99.90
13482;DHT22;6813;60.352;15.746;2023-04-12T00:25:04;6.90;99.90
13482;DHT22;6813;60.352;15.746;2023-04-12T00:27:30;6.90;99.90
13482;DHT22;6813;60.352;15.746;2023-04-12T00:29:55;6.90;99.90
13482;DHT22;6813;60.352;15.746;2023-04-12T00:32:21;6.80;99.90
13482;DHT22;6813;60.352;15.746;2023-04-12T00:34:47;6.90;99.90
13482;DHT22;6813;60.352;15.746;2023-04-12T00:37:13;6.90;99.90
13482;DHT22;6813;60.352;15.746;2023-04-12T00:39:38;6.80;99.90
13482;DHT22;6813;60.352;15.746;2023-04-12T00:42:04;6.80;99.90
13482;DHT22;6813;60.352;15.746;2023-04-12T00:44:31;6.80;99.90
13482;DHT22;6813;60.352;15.746;2023-04-12T00:46:58;6.80;99.90
13482;DHT22;6813;60.352;15.746;2023-04-12T00:49:27;6.80;99.90
13482;DHT22;6813;60.352;15.746;2023-04-12T00:52:02;6.70;99.90
13482;DHT22;6813;60.352;15.746;2023-04-12T00:54:33;6.70;99.90
13482;DHT22;6813;60.352;15.746;2023-04-12T00:57:02;6.70;99.90
13482;DHT22;6813;60.352;15.746;2023-04-12T00:59:28;6.60;99.90
13482;DHT22;6813;60.352;15.746;2023-04-12T01:01:55;6.60;99.90
13482;DHT22;6813;60.352;15.746;2023-04-12T01:04:23;6.60;99.90
13482;DHT22;6813;60.352;15.746;2023-04-12T01:09:26;6.60;99.90
13482;DHT22;6813;60.352;15.746;2023-04-12T01:12:00;6.60;99.90
13482;DHT22;6813;60.352;15.746;2023-04-12T01:17:10;6.50;99.90
13482;DHT22;6813;60.352;15.746;2023-04-12T01:28:02;6.50;99.90
13482;DHT22;6813;60.352;15.746;2023-04-12T01:30:28;6.50;99.90
13482;DHT22;6813;60.352;15.746;2023-04-12T01:32:56;6.50;99.90
13482;DHT22;6813;60.352;15.746;2023-04-12T01:35:29;6.50;99.90
13482;DHT22;6813;60.352;15.746;2023-04-12T01:37:56;6.50;99.90
13482;DHT22;6813;60.352;15.746;2023-04-12T01:40:23;6.50;99.90
13482;DHT22;6813;60.352;15.746;2023-04-12T01:43:07;6.50;99.90
13482;DHT22;6813;60.352;15.746;2023-04-12T01:45:33;6.50;99.90
13482;DHT22;6813;60.352;15.746;2023-04-12T01:47:59;6.50;99.90
13482;DHT22;6813;60.352;15.746;2023-04-12T01:50:34;6.50;99.90
13482;DHT22;6813;60.352;15.746;2023-04-12T01:56:08;6.50;99.90
13482;DHT22;6813;60.352;15.746;2023-04-12T01:58:36;6.50;99.90
13482;DHT22;6813;60.352;15.746;2023-04-12T02:01:02;6.50;99.90
13482;DHT22;6813;60.352;15.746;2023-04-12T02:03:29;6.50;99.90
13482;DHT22;6813;60.352;15.746;2023-04-12T02:05:57;6.50;99.90
13482;DHT22;6813;60.352;15.746;2023-04-12T02:08:24;6.50;99.90
13482;DHT22;6813;60.352;15.746;2023-04-12T02:10:50;6.50;99.90
13482;DHT22;6813;60.352;15.746;2023-04-12T02:13:16;6.70;99.90
13482;DHT22;6813;60.352;15.746;2023-04-12T02:15:44;6.90;99.90
13482;DHT22;6813;60.352;15.746;2023-04-12T02:18:11;7.00;99.90
13482;DHT22;6813;60.352;15.746;2023-04-12T02:20:38;7.00;99.90
13482;DHT22;6813;60.352;15.746;2023-04-12T02:23:05;7.00;99.90
13482;DHT22;6813;60.352;15.746;2023-04-12T02:25:31;7.10;99.90
13482;DHT22;6813;60.352;15.746;2023-04-12T02:27:57;7.00;99.90
13482;DHT22;6813;60.352;15.746;2023-04-12T02:30:23;6.90;99.90
13482;DHT22;6813;60.352;15.746;2023-04-12T02:32:49;7.00;99.90
13482;DHT22;6813;60.352;15.746;2023-04-12T02:35:15;6.90;99.90
13482;DHT22;6813;60.352;15.746;2023-04-12T02:37:43;6.90;99.90
13482;DHT22;6813;60.352;15.746;2023-04-12T02:40:09;6.80;99.90
13482;DHT22;6813;60.352;15.746;2023-04-12T02:42:36;6.80;99.90
13482;DHT22;6813;60.352;15.746;2023-04-12T02:45:02;6.80;99.90
13482;DHT22;6813;60.352;15.746;2023-04-12T02:47:28;6.80;99.90
13482;DHT22;6813;60.352;15.746;2023-04-12T02:49:54;6.90;99.90
13482;DHT22;6813;60.352;15.746;2023-04-12T02:52:20;7.00;99.90
13482;DHT22;6813;60.352;15.746;2023-04-12T02:54:48;6.90;99.90
13482;DHT22;6813;60.352;15.746;2023-04-12T02:57:14;7.00;99.90
13482;DHT22;6813;60.352;15.746;2023-04-12T02:59:40;7.10;99.90
13482;DHT22;6813;60.352;15.746;2023-04-12T03:02:07;7.20;99.90
13482;DHT22;6813;60.352;15.746;2023-04-12T03:04:33;7.20;99.90
13482;DHT22;6813;60.352;15.746;2023-04-12T03:07:02;7.10;99.90
13482;DHT22;6813;60.352;15.746;2023-04-12T03:09:27;7.10;99.90
13482;DHT22;6813;60.352;15.746;2023-04-12T03:11:53;7.00;99.90
13482;DHT22;6813;60.352;15.746;2023-04-12T03:14:19;6.90;99.90
13482;DHT22;6813;60.352;15.746;2023-04-12T03:16:44;6.80;99.90
13482;DHT22;6813;60.352;15.746;2023-04-12T03:19:10;6.70;99.90
13482;DHT22;6813;60.352;15.746;2023-04-12T03:21:36;6.70;99.90
13482;DHT22;6813;60.352;15.746;2023-04-12T03:24:02;6.70;99.90
13482;DHT22;6813;60.352;15.746;2023-04-12T03:26:28;6.90;99.90
13482;DHT22;6813;60.352;15.746;2023-04-12T03:29:00;6.90;99.90
13482;DHT22;6813;60.352;15.746;2023-04-12T03:31:26;6.90;99.90
13482;DHT22;6813;60.352;15.746;2023-04-12T03:33:52;7.00;99.90
13482;DHT22;6813;60.352;15.746;2023-04-12T03:36:19;7.10;99.90
13482;DHT22;6813;60.352;15.746;2023-04-12T03:38:46;7.10;99.90
13482;DHT22;6813;60.352;15.746;2023-04-12T03:41:11;7.10;99.90
13482;DHT22;6813;60.352;15.746;2023-04-12T03:43:37;7.10;99.90
13482;DHT22;6813;60.352;15.746;2023-04-12T03:46:03;7.20;99.90
13482;DHT22;6813;60.352;15.746;2023-04-12T03:48:29;7.30;99.90
13482;DHT22;6813;60.352;15.746;2023-04-12T03:50:55;7.20;99.90
13482;DHT22;6813;60.352;15.746;2023-04-12T03:53:24;7.30;99.90
13482;DHT22;6813;60.352;15.746;2023-04-12T03:55:51;7.40;99.90
13482;DHT22;6813;60.352;15.746;2023-04-12T03:58:18;7.40;99.90
13482;DHT22;6813;60.352;15.746;2023-04-12T04:00:44;7.30;99.90
13482;DHT22;6813;60.352;15.746;2023-04-12T04:03:11;7.40;99.90
13482;DHT22;6813;60.352;15.746;2023-04-12T04:05:37;7.50;99.90
13482;DHT22;6813;60.352;15.746;2023-04-12T04:08:03;7.60;99.90
13482;DHT22;6813;60.352;15.746;2023-04-12T04:10:31;7.70;99.90
13482;DHT22;6813;60.352;15.746;2023-04-12T04:12:57;7.70;99.90
13482;DHT22;6813;60.352;15.746;2023-04-12T04:15:24;7.70;99.90
13482;DHT22;6813;60.352;15.746;2023-04-12T04:17:50;7.70;99.90
13482;DHT22;6813;60.352;15.746;2023-04-12T04:20:17;7.80;99.90
13482;DHT22;6813;60.352;15.746;2023-04-12T04:22:46;7.80;99.90
13482;DHT22;6813;60.352;15.746;2023-04-12T04:25:13;7.80;99.90
13482;DHT22;6813;60.352;15.746;2023-04-12T04:27:43;7.80;99.90
13482;DHT22;6813;60.352;15.746;2023-04-12T04:30:12;7.80;99.90
13482;DHT22;6813;60.352;15.746;2023-04-12T04:32:39;7.80;99.90
13482;DHT22;6813;60.352;15.746;2023-04-12T04:35:06;7.90;99.90
13482;DHT22;6813;60.352;15.746;2023-04-12T04:37:32;7.80;99.90
13482;DHT22;6813;60.352;15.746;2023-04-12T04:40:00;7.70;99.90
13482;DHT22;6813;60.352;15.746;2023-04-12T04:42:31;7.60;99.90
13482;DHT22;6813;60.352;15.746;2023-04-12T04:44:57;7.60;99.90
13482;DHT22;6813;60.352;15.746;2023-04-12T04:47:29;7.60;99.90
13482;DHT22;6813;60.352;15.746;2023-04-12T04:49:59;7.60;99.90
13482;DHT22;6813;60.352;15.746;2023-04-12T04:52:25;7.50;99.90
13482;DHT22;6813;60.352;15.746;2023-04-12T04:54:50;7.50;99.90
13482;DHT22;6813;60.352;15.746;2023-04-12T04:57:16;7.50;99.90
13482;DHT22;6813;60.352;15.746;2023-04-12T04:59:42;7.40;99.90
13482;DHT22;6813;60.352;15.746;2023-04-12T05:02:08;7.50;99.90
13482;DHT22;6813;60.352;15.746;2023-04-12T05:04:35;7.70;99.90
13482;DHT22;6813;60.352;15.746;2023-04-12T05:07:01;7.80;99.90
13482;DHT22;6813;60.352;15.746;2023-04-12T05:09:27;7.80;99.90
13482;DHT22;6813;60.352;15.746;2023-04-12T05:11:53;7.50;99.90
13482;DHT22;6813;60.352;15.746;2023-04-12T05:14:18;7.50;99.90
13482;DHT22;6813;60.352;15.746;2023-04-12T05:16:45;7.50;99.90
13482;DHT22;6813;60.352;15.746;2023-04-12T05:19:10;7.40;99.90
13482;DHT22;6813;60.352;15.746;2023-04-12T05:21:36;7.50;99.90
13482;DHT22;6813;60.352;15.746;2023-04-12T05:24:02;7.50;99.90
13482;DHT22;6813;60.352;15.746;2023-04-12T05:26:27;7.50;99.90
13482;DHT22;6813;60.352;15.746;2023-04-12T05:28:53;7.50;99.90
13482;DHT22;6813;60.352;15.746;2023-04-12T05:31:19;7.30;99.90
13482;DHT22;6813;60.352;15.746;2023-04-12T05:33:44;7.20;99.90
13482;DHT22;6813;60.352;15.746;2023-04-12T05:36:10;6.80;99.90
13482;DHT22;6813;60.352;15.746;2023-04-12T05:38:36;6.80;99.90
13482;DHT22;6813;60.352;15.746;2023-04-12T05:41:02;6.90;99.90
13482;DHT22;6813;60.352;15.746;2023-04-12T05:43:29;7.10;99.90
13482;DHT22;6813;60.352;15.746;2023-04-12T05:45:55;7.30;99.90
13482;DHT22;6813;60.352;15.746;2023-04-12T05:48:21;7.40;99.90
13482;DHT22;6813;60.352;15.746;2023-04-12T05:50:51;7.40;99.90
13482;DHT22;6813;60.352;15.746;2023-04-12T05:53:17;7.30;99.90
13482;DHT22;6813;60.352;15.746;2023-04-12T05:55:43;7.40;99.90
13482;DHT22;6813;60.352;15.746;2023-04-12T05:58:10;7.50;99.90
13482;DHT22;6813;60.352;15.746;2023-04-12T06:00:36;7.60;99.90
13482;DHT22;6813;60.352;15.746;2023-04-12T06:03:01;7.70;99.90
13482;DHT22;6813;60.352;15.746;2023-04-12T06:05:29;7.70;99.90
13482;DHT22;6813;60.352;15.746;2023-04-12T06:07:55;7.70;99.90
13482;DHT22;6813;60.352;15.746;2023-04-12T06:10:20;7.90;99.90
13482;DHT22;6813;60.352;15.746;2023-04-12T06:12:46;8.00;99.90
13482;DHT22;6813;60.352;15.746;2023-04-12T06:15:12;8.20;99.90
13482;DHT22;6813;60.352;15.746;2023-04-12T06:17:37;8.30;99.90
13482;DHT22;6813;60.352;15.746;2023-04-12T06:20:04;8.30;99.90
13482;DHT22;6813;60.352;15.746;2023-04-12T06:22:32;8.40;99.90
13482;DHT22;6813;60.352;15.746;2023-04-12T06:24:58;8.40;99.90
13482;DHT22;6813;60.352;15.746;2023-04-12T06:27:24;8.40;99.90
13482;DHT22;6813;60.352;15.746;2023-04-12T06:29:51;8.50;99.90
13482;DHT22;6813;60.352;15.746;2023-04-12T06:32:17;8.50;99.90
13482;DHT22;6813;60.352;15.746;2023-04-12T06:34:42;8.50;99.90
13482;DHT22;6813;60.352;15.746;2023-04-12T06:37:08;8.50;99.90
13482;DHT22;6813;60.352;15.746;2023-04-12T06:39:34;8.50;99.90
13482;DHT22;6813;60.352;15.746;2023-04-12T06:41:59;8.60;99.90
13482;DHT22;6813;60.352;15.746;2023-04-12T06:44:26;8.80;99.90
13482;DHT22;6813;60.352;15.746;2023-04-12T06:46:52;8.90;99.90
13482;DHT22;6813;60.352;15.746;2023-04-12T06:49:18;9.00;99.90
13482;DHT22;6813;60.352;15.746;2023-04-12T06:51:44;9.10;99.90
13482;DHT22;6813;60.352;15.746;2023-04-12T06:54:10;9.20;99.90
13482;DHT22;6813;60.352;15.746;2023-04-12T06:56:37;9.30;99.90
13482;DHT22;6813;60.352;15.746;2023-04-12T06:59:03;9.40;99.90
13482;DHT22;6813;60.352;15.746;2023-04-12T07:01:28;9.50;99.90
13482;DHT22;6813;60.352;15.746;2023-04-12T07:03:54;9.60;99.90
13482;DHT22;6813;60.352;15.746;2023-04-12T07:06:20;9.70;99.90
13482;DHT22;6813;60.352;15.746;2023-04-12T07:08:46;9.80;99.90
13482;DHT22;6813;60.352;15.746;2023-04-12T07:11:12;9.90;99.90
13482;DHT22;6813;60.352;15.746;2023-04-12T07:13:38;9.90;99.90
13482;DHT22;6813;60.352;15.746;2023-04-12T07:16:04;10.00;99.90
13482;DHT22;6813;60.352;15.746;2023-04-12T07:18:30;10.10;99.90
13482;DHT22;6813;60.352;15.746;2023-04-12T07:20:56;10.30;99.90
13482;DHT22;6813;60.352;15.746;2023-04-12T07:23:22;10.40;99.90
13482;DHT22;6813;60.352;15.746;2023-04-12T07:25:48;10.50;99.90
13482;DHT22;6813;60.352;15.746;2023-04-12T07:28:14;10.60;99.90
13482;DHT22;6813;60.352;15.746;2023-04-12T07:30:40;10.70;99.90
13482;DHT22;6813;60.352;15.746;2023-04-12T07:33:06;10.80;99.90
13482;DHT22;6813;60.352;15.746;2023-04-12T07:35:32;10.80;99.90
13482;DHT22;6813;60.352;15.746;2023-04-12T07:37:58;10.80;99.90
13482;DHT22;6813;60.352;15.746;2023-04-12T07:40:25;10.80;99.90
13482;DHT22;6813;60.352;15.746;2023-04-12T07:42:51;10.80;99.90
13482;DHT22;6813;60.352;15.746;2023-04-12T07:45:18;10.90;99.90
13482;DHT22;6813;60.352;15.746;2023-04-12T07:47:44;10.80;99.90
13482;DHT22;6813;60.352;15.746;2023-04-12T07:50:10;10.90;99.90
13482;DHT22;6813;60.352;15.746;2023-04-12T07:52:36;10.90;99.90
13482;DHT22;6813;60.352;15.746;2023-04-12T07:55:02;11.00;99.90
13482;DHT22;6813;60.352;15.746;2023-04-12T07:57:28;10.50;99.90
13482;DHT22;6813;60.352;15.746;2023-04-12T07:59:53;10.60;99.90
13482;DHT22;6813;60.352;15.746;2023-04-12T08:02:21;11.00;99.90
13482;DHT22;6813;60.352;15.746;2023-04-12T08:04:51;10.90;99.90
13482;DHT22;6813;60.352;15.746;2023-04-12T08:07:16;11.00;99.90
13482;DHT22;6813;60.352;15.746;2023-04-12T08:09:42;11.10;99.90
13482;DHT22;6813;60.352;15.746;2023-04-12T08:12:08;11.10;99.90
13482;DHT22;6813;60.352;15.746;2023-04-12T08:14:33;10.90;99.90
13482;DHT22;6813;60.352;15.746;2023-04-12T08:16:59;10.80;99.90
13482;DHT22;6813;60.352;15.746;2023-04-12T08:19:25;11.00;99.90
13482;DHT22;6813;60.352;15.746;2023-04-12T08:21:52;11.20;99.90
13482;DHT22;6813;60.352;15.746;2023-04-12T08:24:17;11.50;99.90
13482;DHT22;6813;60.352;15.746;2023-04-12T08:26:44;11.60;99.90
13482;DHT22;6813;60.352;15.746;2023-04-12T08:29:10;11.70;99.90
13482;DHT22;6813;60.352;15.746;2023-04-12T08:31:37;11.50;99.90
13482;DHT22;6813;60.352;15.746;2023-04-12T08:34:03;11.10;99.90
13482;DHT22;6813;60.352;15.746;2023-04-12T08:36:29;10.80;99.90
13482;DHT22;6813;60.352;15.746;2023-04-12T08:39:03;10.80;99.90
13482;DHT22;6813;60.352;15.746;2023-04-12T08:41:29;10.70;99.90
13482;DHT22;6813;60.352;15.746;2023-04-12T08:43:56;10.40;99.90
13482;DHT22;6813;60.352;15.746;2023-04-12T08:46:23;10.50;99.90
13482;DHT22;6813;60.352;15.746;2023-04-12T08:48:51;10.90;99.90
13482;DHT22;6813;60.352;15.746;2023-04-12T08:51:20;11.50;99.90
13482;DHT22;6813;60.352;15.746;2023-04-12T08:53:47;11.70;99.90
13482;DHT22;6813;60.352;15.746;2023-04-12T08:56:14;11.60;99.90
13482;DHT22;6813;60.352;15.746;2023-04-12T08:58:47;11.50;99.90
13482;DHT22;6813;60.352;15.746;2023-04-12T09:01:54;11.20;99.90
13482;DHT22;6813;60.352;15.746;2023-04-12T09:04:23;10.90;99.90
13482;DHT22;6813;60.352;15.746;2023-04-12T09:06:49;10.70;99.90
13482;DHT22;6813;60.352;15.746;2023-04-12T09:09:15;10.70;99.90
13482;DHT22;6813;60.352;15.746;2023-04-12T09:11:41;10.60;99.90
13482;DHT22;6813;60.352;15.746;2023-04-12T09:14:23;10.70;99.90
13482;DHT22;6813;60.352;15.746;2023-04-12T09:16:50;10.80;99.90
13482;DHT22;6813;60.352;15.746;2023-04-12T09:19:32;10.70;99.90
13482;DHT22;6813;60.352;15.746;2023-04-12T09:21:58;10.60;99.90
13482;DHT22;6813;60.352;15.746;2023-04-12T09:24:24;10.70;99.90
13482;DHT22;6813;60.352;15.746;2023-04-12T09:27:06;10.40;99.90
13482;DHT22;6813;60.352;15.746;2023-04-12T09:29:33;10.50;99.90
13482;DHT22;6813;60.352;15.746;2023-04-12T09:32:06;10.60;99.90
13482;DHT22;6813;60.352;15.746;2023-04-12T09:34:34;10.80;99.90
13482;DHT22;6813;60.352;15.746;2023-04-12T09:37:14;10.70;99.90
13482;DHT22;6813;60.352;15.746;2023-04-12T09:39:41;10.90;99.90
13482;DHT22;6813;60.352;15.746;2023-04-12T09:42:11;11.10;99.90
13482;DHT22;6813;60.352;15.746;2023-04-12T09:44:38;11.00;99.90
13482;DHT22;6813;60.352;15.746;2023-04-12T09:47:04;10.70;99.90
13482;DHT22;6813;60.352;15.746;2023-04-12T09:49:43;10.60;99.90
13482;DHT22;6813;60.352;15.746;2023-04-12T09:52:10;10.50;99.90
13482;DHT22;6813;60.352;15.746;2023-04-12T09:54:42;10.70;99.90
13482;DHT22;6813;60.352;15.746;2023-04-12T09:57:08;10.80;99.90
13482;DHT22;6813;60.352;15.746;2023-04-12T09:59:41;10.80;99.90
13482;DHT22;6813;60.352;15.746;2023-04-12T10:02:13;11.00;99.90
13482;DHT22;6813;60.352;15.746;2023-04-12T10:04:39;11.20;99.90
13482;DHT22;6813;60.352;15.746;2023-04-12T10:07:06;11.40;99.90
13482;DHT22;6813;60.352;15.746;2023-04-12T10:09:33;11.50;99.90
13482;DHT22;6813;60.352;15.746;2023-04-12T10:12:01;11.70;99.90
13482;DHT22;6813;60.352;15.746;2023-04-12T10:14:28;11.80;99.90
13482;DHT22;6813;60.352;15.746;2023-04-12T10:16:56;11.80;99.90
13482;DHT22;6813;60.352;15.746;2023-04-12T10:19:25;11.80;99.90
13482;DHT22;6813;60.352;15.746;2023-04-12T10:21:51;11.90;99.90
13482;DHT22;6813;60.352;15.746;2023-04-12T10:24:20;12.00;99.90
13482;DHT22;6813;60.352;15.746;2023-04-12T10:26:46;12.20;99.90
13482;DHT22;6813;60.352;15.746;2023-04-12T10:29:28;12.30;99.90
13482;DHT22;6813;60.352;15.746;2023-04-12T10:31:56;12.60;99.90
13482;DHT22;6813;60.352;15.746;2023-04-12T10:38:01;12.90;99.90
13482;DHT22;6813;60.352;15.746;2023-04-12T10:40:29;12.80;99.90
13482;DHT22;6813;60.352;15.746;2023-04-12T10:45:43;13.00;99.90
13482;DHT22;6813;60.352;15.746;2023-04-12T10:48:35;13.20;99.90
13482;DHT22;6813;60.352;15.746;2023-04-12T10:51:21;13.20;99.90
13482;DHT22;6813;60.352;15.746;2023-04-12T10:54:28;12.90;99.90
13482;DHT22;6813;60.352;15.746;2023-04-12T10:56:45;12.90;99.90
13482;DHT22;6813;60.352;15.746;2023-04-12T10:59:14;12.70;99.90
13482;DHT22;6813;60.352;15.746;2023-04-12T11:04:32;13.00;99.90
13482;DHT22;6813;60.352;15.746;2023-04-12T11:06:58;12.90;99.90
13482;DHT22;6813;60.352;15.746;2023-04-12T11:15:03;13.00;99.90
13482;DHT22;6813;60.352;15.746;2023-04-12T11:17:31;13.00;99.90
13482;DHT22;6813;60.352;15.746;2023-04-12T11:19:58;12.90;99.90
13482;DHT22;6813;60.352;15.746;2023-04-12T11:22:34;13.00;99.90
13482;DHT22;6813;60.352;15.746;2023-04-12T11:25:01;13.00;99.90
13482;DHT22;6813;60.352;15.746;2023-04-12T11:27:28;13.00;99.90
13482;DHT22;6813;60.352;15.746;2023-04-12T11:29:56;13.00;99.90
13482;DHT22;6813;60.352;15.746;2023-04-12T11:32:24;13.30;99.90
13482;DHT22;6813;60.352;15.746;2023-04-12T11:34:53;13.50;99.90
13482;DHT22;6813;60.352;15.746;2023-04-12T11:37:19;13.50;99.90
13482;DHT22;6813;60.352;15.746;2023-04-12T11:40:00;13.60;99.90
13482;DHT22;6813;60.352;15.746;2023-04-12T11:42:30;13.90;99.90
13482;DHT22;6813;60.352;15.746;2023-04-12T11:44:57;13.90;99.90
13482;DHT22;6813;60.352;15.746;2023-04-12T11:47:23;13.70;99.90
13482;DHT22;6813;60.352;15.746;2023-04-12T11:49:58;13.60;99.90
13482;DHT22;6813;60.352;15.746;2023-04-12T11:52:29;13.60;99.90
13482;DHT22;6813;60.352;15.746;2023-04-12T11:55:00;13.80;99.90
13482;DHT22;6813;60.352;15.746;2023-04-12T11:57:30;14.00;99.90
13482;DHT22;6813;60.352;15.746;2023-04-12T11:59:57;14.20;99.90
13482;DHT22;6813;60.352;15.746;2023-04-12T12:02:25;14.10;99.90
13482;DHT22;6813;60.352;15.746;2023-04-12T12:04:52;14.10;99.90
13482;DHT22;6813;60.352;15.746;2023-04-12T12:07:20;14.10;99.90
13482;DHT22;6813;60.352;15.746;2023-04-12T12:09:46;13.70;99.90
13482;DHT22;6813;60.352;15.746;2023-04-12T12:12:13;13.70;99.90
13482;DHT22;6813;60.352;15.746;2023-04-12T12:14:39;13.80;99.90
13482;DHT22;6813;60.352;15.746;2023-04-12T12:17:10;13.80;99.90
13482;DHT22;6813;60.352;15.746;2023-04-12T12:19:38;13.90;99.90
13482;DHT22;6813;60.352;15.746;2023-04-12T12:22:14;13.90;99.90
13482;DHT22;6813;60.352;15.746;2023-04-12T12:27:37;14.10;99.90
13482;DHT22;6813;60.352;15.746;2023-04-12T12:30:06;14.20;99.90
13482;DHT22;6813;60.352;15.746;2023-04-12T12:32:36;14.30;99.90
13482;DHT22;6813;60.352;15.746;2023-04-12T12:35:09;14.50;99.90
13482;DHT22;6813;60.352;15.746;2023-04-12T12:37:35;14.40;99.90
13482;DHT22;6813;60.352;15.746;2023-04-12T12:40:08;14.20;99.90
13482;DHT22;6813;60.352;15.746;2023-04-12T12:45:10;14.40;99.90
13482;DHT22;6813;60.352;15.746;2023-04-12T12:47:59;14.20;99.90
13482;DHT22;6813;60.352;15.746;2023-04-12T12:50:31;14.10;99.90
13482;DHT22;6813;60.352;15.746;2023-04-12T12:52:57;13.90;99.90
13482;DHT22;6813;60.352;15.746;2023-04-12T12:55:26;14.00;99.90
13482;DHT22;6813;60.352;15.746;2023-04-12T12:57:53;14.00;99.90
13482;DHT22;6813;60.352;15.746;2023-04-12T13:00:22;14.00;99.90
13482;DHT22;6813;60.352;15.746;2023-04-12T13:02:48;13.90;99.90
13482;DHT22;6813;60.352;15.746;2023-04-12T13:05:15;13.90;99.90
13482;DHT22;6813;60.352;15.746;2023-04-12T13:07:40;13.90;99.90
13482;DHT22;6813;60.352;15.746;2023-04-12T13:10:07;14.00;99.90
13482;DHT22;6813;60.352;15.746;2023-04-12T13:12:33;13.90;99.90
13482;DHT22;6813;60.352;15.746;2023-04-12T13:14:59;14.10;99.90
13482;DHT22;6813;60.352;15.746;2023-04-12T13:17:29;14.20;99.90
13482;DHT22;6813;60.352;15.746;2023-04-12T13:19:55;14.30;99.90
13482;DHT22;6813;60.352;15.746;2023-04-12T13:22:21;14.30;99.90
13482;DHT22;6813;60.352;15.746;2023-04-12T13:24:47;14.30;99.90
13482;DHT22;6813;60.352;15.746;2023-04-12T13:27:13;14.30;99.90
13482;DHT22;6813;60.352;15.746;2023-04-12T13:29:39;14.30;99.90
13482;DHT22;6813;60.352;15.746;2023-04-12T13:32:05;14.20;99.90
13482;DHT22;6813;60.352;15.746;2023-04-12T13:34:31;14.10;99.90
13482;DHT22;6813;60.352;15.746;2023-04-12T13:36:57;14.10;99.90
13482;DHT22;6813;60.352;15.746;2023-04-12T13:39:23;14.10;99.90
13482;DHT22;6813;60.352;15.746;2023-04-12T13:41:50;14.00;99.90
13482;DHT22;6813;60.352;15.746;2023-04-12T13:44:16;14.00;99.90
13482;DHT22;6813;60.352;15.746;2023-04-12T13:46:42;13.90;99.90
13482;DHT22;6813;60.352;15.746;2023-04-12T13:49:07;13.80;99.90
13482;DHT22;6813;60.352;15.746;2023-04-12T13:51:33;13.70;99.90
13482;DHT22;6813;60.352;15.746;2023-04-12T13:53:59;13.70;99.90
13482;DHT22;6813;60.352;15.746;2023-04-12T13:56:25;13.80;99.90
13482;DHT22;6813;60.352;15.746;2023-04-12T13:58:51;13.70;99.90
13482;DHT22;6813;60.352;15.746;2023-04-12T14:01:17;13.70;99.90
13482;DHT22;6813;60.352;15.746;2023-04-12T14:03:43;13.80;99.90
13482;DHT22;6813;60.352;15.746;2023-04-12T14:06:09;13.80;99.90
13482;DHT22;6813;60.352;15.746;2023-04-12T14:08:35;13.70;99.90
13482;DHT22;6813;60.352;15.746;2023-04-12T14:11:03;13.70;99.90
13482;DHT22;6813;60.352;15.746;2023-04-12T14:13:29;13.60;99.90
13482;DHT22;6813;60.352;15.746;2023-04-12T14:15:55;13.50;99.90
13482;DHT22;6813;60.352;15.746;2023-04-12T14:18:21;13.50;99.90
13482;DHT22;6813;60.352;15.746;2023-04-12T14:20:48;13.50;99.90
13482;DHT22;6813;60.352;15.746;2023-04-12T14:23:17;13.40;99.90
13482;DHT22;6813;60.352;15.746;2023-04-12T14:25:43;13.50;99.90
13482;DHT22;6813;60.352;15.746;2023-04-12T14:28:10;13.60;99.90
13482;DHT22;6813;60.352;15.746;2023-04-12T14:30:41;13.60;99.90
13482;DHT22;6813;60.352;15.746;2023-04-12T14:33:07;13.40;99.90
13482;DHT22;6813;60.352;15.746;2023-04-12T14:35:33;13.20;99.90
13482;DHT22;6813;60.352;15.746;2023-04-12T14:37:58;13.00;99.90
13482;DHT22;6813;60.352;15.746;2023-04-12T14:40:24;12.70;99.90
13482;DHT22;6813;60.352;15.746;2023-04-12T14:42:50;12.60;99.90
13482;DHT22;6813;60.352;15.746;2023-04-12T14:45:19;12.50;99.90
13482;DHT22;6813;60.352;15.746;2023-04-12T14:47:45;12.40;99.90
13482;DHT22;6813;60.352;15.746;2023-04-12T14:50:12;12.30;99.90
13482;DHT22;6813;60.352;15.746;2023-04-12T14:52:38;12.50;99.90
13482;DHT22;6813;60.352;15.746;2023-04-12T14:55:04;12.50;99.90
13482;DHT22;6813;60.352;15.746;2023-04-12T14:57:36;12.50;99.90
13482;DHT22;6813;60.352;15.746;2023-04-12T15:00:06;12.40;99.90
13482;DHT22;6813;60.352;15.746;2023-04-12T15:02:42;12.50;99.90
13482;DHT22;6813;60.352;15.746;2023-04-12T15:05:10;12.50;99.90
13482;DHT22;6813;60.352;15.746;2023-04-12T15:07:36;12.60;99.90
13482;DHT22;6813;60.352;15.746;2023-04-12T15:10:03;12.60;99.90
13482;DHT22;6813;60.352;15.746;2023-04-12T15:12:29;12.70;99.90
13482;DHT22;6813;60.352;15.746;2023-04-12T15:14:58;12.80;99.90
13482;DHT22;6813;60.352;15.746;2023-04-12T15:17:25;12.90;99.90
13482;DHT22;6813;60.352;15.746;2023-04-12T15:19:50;13.00;99.90
13482;DHT22;6813;60.352;15.746;2023-04-12T15:22:17;13.10;99.90
13482;DHT22;6813;60.352;15.746;2023-04-12T15:24:42;13.20;99.90
13482;DHT22;6813;60.352;15.746;2023-04-12T15:27:08;13.20;99.90
13482;DHT22;6813;60.352;15.746;2023-04-12T15:29:34;13.30;99.90
13482;DHT22;6813;60.352;15.746;2023-04-12T15:32:00;13.40;99.90
13482;DHT22;6813;60.352;15.746;2023-04-12T15:34:25;13.50;99.90
13482;DHT22;6813;60.352;15.746;2023-04-12T15:36:53;13.50;99.90
13482;DHT22;6813;60.352;15.746;2023-04-12T15:39:18;13.60;99.90
13482;DHT22;6813;60.352;15.746;2023-04-12T15:41:44;13.70;99.90
13482;DHT22;6813;60.352;15.746;2023-04-12T15:44:11;13.80;99.90
13482;DHT22;6813;60.352;15.746;2023-04-12T15:46:39;13.90;99.90
13482;DHT22;6813;60.352;15.746;2023-04-12T15:49:06;14.00;99.90
13482;DHT22;6813;60.352;15.746;2023-04-12T15:51:31;14.10;99.90
13482;DHT22;6813;60.352;15.746;2023-04-12T15:53:57;14.20;99.90
13482;DHT22;6813;60.352;15.746;2023-04-12T15:56:23;14.30;99.90
13482;DHT22;6813;60.352;15.746;2023-04-12T15:58:53;14.30;99.90
13482;DHT22;6813;60.352;15.746;2023-04-12T16:01:21;14.40;99.90
13482;DHT22;6813;60.352;15.746;2023-04-12T16:03:47;14.40;99.90
13482;DHT22;6813;60.352;15.746;2023-04-12T16:06:15;14.30;99.90
13482;DHT22;6813;60.352;15.746;2023-04-12T16:08:48;14.40;99.90
13482;DHT22;6813;60.352;15.746;2023-04-12T16:11:18;14.30;99.90
13482;DHT22;6813;60.352;15.746;2023-04-12T16:13:45;14.20;99.90
13482;DHT22;6813;60.352;15.746;2023-04-12T16:16:13;14.20;99.90